createdAt,value
2022-12-24T00:01:33.437Z,9.64
2022-12-24T00:03:59.764Z,9.63
2022-12-24T00:06:26.149Z,9.59
2022-12-24T00:08:52.720Z,9.55
2022-12-24T00:11:19.788Z,9.55
2022-12-24T00:13:46.848Z,9.50
2022-12-24T00:16:13.300Z,9.53
2022-12-24T00:18:45.495Z,9.54
2022-12-24T00:21:12.480Z,9.57
2022-12-24T00:23:39.922Z,9.61
2022-12-24T00:26:06.230Z,9.51
2022-12-24T00:28:32.575Z,9.50
2022-12-24T00:30:59.054Z,9.56
2022-12-24T00:33:25.418Z,9.56
2022-12-24T00:35:52.915Z,9.61
2022-12-24T00:38:19.361Z,9.50
2022-12-24T00:40:45.721Z,9.50
2022-12-24T00:43:12.100Z,9.53
2022-12-24T00:45:38.421Z,9.50
2022-12-24T00:48:04.895Z,9.50
2022-12-24T00:50:31.195Z,9.49
2022-12-24T00:52:57.532Z,9.44
2022-12-24T00:55:23.883Z,9.45
2022-12-24T00:57:50.164Z,9.43
2022-12-24T01:00:17.784Z,9.38
2022-12-24T01:02:44.463Z,9.39
2022-12-24T01:05:11.630Z,9.37
2022-12-24T01:07:40.735Z,9.37
2022-12-24T01:10:07.993Z,9.26
2022-12-24T01:12:34.733Z,9.34
2022-12-24T01:15:01.038Z,9.23
2022-12-24T01:17:27.336Z,9.30
2022-12-24T01:19:53.634Z,9.29
2022-12-24T01:22:19.983Z,9.22
2022-12-24T01:24:46.484Z,9.26
2022-12-24T01:27:12.807Z,9.27
2022-12-24T01:29:39.093Z,9.24
2022-12-24T01:32:05.431Z,9.20
2022-12-24T01:34:32.016Z,9.26
2022-12-24T01:36:58.346Z,9.26
2022-12-24T01:39:24.684Z,9.22
2022-12-24T01:42:09.513Z,9.24
2022-12-24T01:44:40.937Z,9.24
2022-12-24T01:47:21.816Z,9.19
2022-12-24T01:50:10.748Z,9.22
2022-12-24T01:52:37.586Z,9.25
2022-12-24T01:55:12.474Z,9.23
2022-12-24T01:57:48.078Z,9.17
2022-12-24T02:00:16.117Z,9.18
2022-12-24T02:02:46.275Z,9.22
2022-12-24T02:05:18.678Z,9.20
2022-12-24T02:07:46.438Z,9.19
2022-12-24T02:10:13.913Z,9.16
2022-12-24T02:12:42.073Z,9.05
2022-12-24T02:15:11.765Z,9.20
2022-12-24T02:18:21.279Z,9.21
2022-12-24T02:21:18.805Z,9.15
2022-12-24T02:24:07.632Z,9.18
2022-12-24T02:27:00.505Z,9.13
2022-12-24T02:29:51.276Z,9.16
2022-12-24T02:32:25.128Z,9.13
2022-12-24T02:34:58.592Z,9.16
2022-12-24T02:37:31.198Z,9.12
2022-12-24T02:40:03.833Z,9.13
2022-12-24T02:42:38.283Z,9.13
2022-12-24T02:45:13.368Z,9.18
2022-12-24T02:47:41.688Z,9.11
2022-12-24T02:50:10.235Z,9.16
2022-12-24T02:52:40.315Z,9.19
2022-12-24T02:55:16.422Z,9.17
2022-12-24T02:58:13.478Z,9.05
2022-12-24T03:01:16.173Z,9.15
2022-12-24T03:04:16.394Z,9.12
2022-12-24T03:06:48.529Z,9.09
2022-12-24T03:09:26.690Z,9.15
2022-12-24T03:12:05.403Z,9.15
2022-12-24T03:14:34.612Z,9.15
2022-12-24T03:17:03.337Z,9.14
2022-12-24T03:19:30.903Z,9.12
2022-12-24T03:22:00.055Z,9.14
2022-12-24T03:24:26.563Z,9.10
2022-12-24T03:26:52.954Z,9.05
2022-12-24T03:29:20.187Z,9.13
2022-12-24T03:31:52.156Z,9.11
2022-12-24T03:34:19.210Z,9.14
2022-12-24T03:36:47.310Z,9.15
2022-12-24T03:39:13.625Z,9.15
2022-12-24T03:41:40.026Z,9.11
2022-12-24T03:44:06.445Z,9.14
2022-12-24T03:46:32.860Z,9.12
2022-12-24T03:48:59.251Z,9.14
2022-12-24T03:51:25.915Z,9.13
2022-12-24T03:53:53.385Z,9.14
2022-12-24T03:56:20.538Z,9.15
2022-12-24T03:58:47.097Z,9.17
2022-12-24T04:01:13.470Z,9.16
2022-12-24T04:03:39.977Z,9.22
2022-12-24T04:06:10.064Z,9.17
2022-12-24T04:08:37.111Z,9.10
2022-12-24T04:11:10.289Z,9.15
2022-12-24T04:13:36.908Z,9.09
2022-12-24T04:16:09.646Z,9.07
2022-12-24T04:18:36.493Z,9.04
2022-12-24T04:21:02.976Z,9.06
2022-12-24T04:23:35.191Z,9.09
2022-12-24T04:26:02.834Z,9.07
2022-12-24T04:28:30.639Z,9.08
2022-12-24T04:31:01.399Z,9.08
2022-12-24T04:33:28.552Z,9.05
2022-12-24T04:35:57.226Z,9.10
2022-12-24T04:38:23.686Z,9.05
2022-12-24T04:40:59.187Z,9.14
2022-12-24T04:43:26.175Z,9.12
2022-12-24T04:45:52.566Z,9.08
2022-12-24T04:48:18.852Z,9.13
2022-12-24T04:50:45.176Z,9.16
2022-12-24T04:53:11.543Z,9.13
2022-12-24T04:55:38.199Z,9.11
2022-12-24T04:58:04.521Z,9.17
2022-12-24T05:00:30.826Z,9.13
2022-12-24T05:02:57.160Z,9.17
2022-12-24T05:05:23.499Z,9.18
2022-12-24T05:07:49.833Z,9.17
2022-12-24T05:10:16.180Z,9.12
2022-12-24T05:12:42.479Z,9.09
2022-12-24T05:15:09.024Z,9.15
2022-12-24T05:17:35.349Z,9.15
2022-12-24T05:20:01.746Z,9.17
2022-12-24T05:22:46.542Z,9.16
2022-12-24T05:25:31.504Z,9.13
2022-12-24T05:27:57.886Z,9.22
2022-12-24T05:30:24.188Z,9.20
2022-12-24T05:32:50.543Z,9.27
2022-12-24T05:35:16.936Z,9.28
2022-12-24T05:37:43.240Z,9.26
2022-12-24T05:40:09.964Z,9.30
2022-12-24T05:42:36.247Z,9.27
2022-12-24T05:45:02.680Z,9.31
2022-12-24T05:47:29.120Z,9.32
2022-12-24T05:49:55.433Z,9.35
2022-12-24T05:52:21.753Z,9.29
2022-12-24T05:54:48.049Z,9.27
2022-12-24T05:57:14.337Z,9.23
2022-12-24T05:59:40.637Z,9.24
2022-12-24T06:02:06.975Z,9.30
2022-12-24T06:04:33.397Z,9.24
2022-12-24T06:06:59.821Z,9.27
2022-12-24T06:09:26.152Z,9.26
2022-12-24T06:11:52.474Z,9.23
2022-12-24T06:14:18.796Z,9.24
2022-12-24T06:16:45.073Z,9.23
2022-12-24T06:19:11.414Z,9.23
2022-12-24T06:21:37.766Z,9.19
2022-12-24T06:24:04.356Z,9.20
2022-12-24T06:26:30.669Z,9.26
2022-12-24T06:28:56.984Z,9.23
2022-12-24T06:31:23.898Z,9.23
2022-12-24T06:33:50.990Z,9.26
2022-12-24T06:36:20.619Z,9.25
2022-12-24T06:38:48.206Z,9.28
2022-12-24T06:41:15.532Z,9.31
2022-12-24T06:43:50.166Z,9.20
2022-12-24T06:46:17.126Z,9.24
2022-12-24T06:48:45.303Z,9.24
2022-12-24T06:51:12.938Z,9.27
2022-12-24T06:53:39.307Z,9.18
2022-12-24T06:56:08.090Z,9.19
2022-12-24T06:58:35.020Z,9.15
2022-12-24T07:01:02.618Z,9.13
2022-12-24T07:03:29.627Z,9.15
2022-12-24T07:05:56.125Z,9.10
2022-12-24T07:08:22.441Z,9.03
2022-12-24T07:10:54.049Z,9.10
2022-12-24T07:13:20.906Z,9.08
2022-12-24T07:15:47.232Z,9.06
2022-12-24T07:18:13.570Z,9.13
2022-12-24T07:20:39.896Z,9.11
2022-12-24T07:23:06.201Z,9.12
2022-12-24T07:25:32.490Z,9.19
2022-12-24T07:27:58.805Z,9.14
2022-12-24T07:30:25.098Z,9.16
2022-12-24T07:32:51.605Z,9.15
2022-12-24T07:35:17.974Z,9.14
2022-12-24T07:37:44.313Z,9.16
2022-12-24T07:40:10.885Z,9.14
2022-12-24T07:42:37.219Z,9.15
2022-12-24T07:45:04.958Z,9.08
2022-12-24T07:47:31.237Z,9.16
2022-12-24T07:49:57.537Z,9.19
2022-12-24T07:52:23.909Z,9.18
2022-12-24T07:54:50.274Z,9.18
2022-12-24T07:57:16.685Z,9.17
2022-12-24T07:59:43.201Z,9.19
2022-12-24T08:02:17.842Z,9.23
2022-12-24T08:04:44.905Z,9.20
2022-12-24T08:07:11.290Z,9.23
2022-12-24T08:09:38.507Z,9.22
2022-12-24T08:12:05.194Z,9.18
2022-12-24T08:14:31.837Z,9.13
2022-12-24T08:16:58.494Z,9.16
2022-12-24T08:19:24.921Z,9.08
2022-12-24T08:21:51.205Z,9.16
2022-12-24T08:24:17.521Z,9.22
2022-12-24T08:26:43.935Z,9.22
2022-12-24T08:29:10.295Z,9.24
2022-12-24T08:31:36.931Z,9.26
2022-12-24T08:34:08.859Z,9.29
2022-12-24T08:36:35.566Z,9.27
2022-12-24T08:39:03.468Z,9.33
2022-12-24T08:41:30.935Z,9.39
2022-12-24T08:43:57.388Z,9.38
2022-12-24T08:46:23.837Z,9.35
2022-12-24T08:48:50.248Z,9.37
2022-12-24T08:51:16.776Z,9.32
2022-12-24T08:53:43.082Z,9.34
2022-12-24T08:56:11.176Z,9.37
2022-12-24T08:58:37.627Z,9.41
2022-12-24T09:01:12.819Z,9.41
2022-12-24T09:03:39.753Z,9.45
2022-12-24T09:06:07.445Z,9.46
2022-12-24T09:08:34.294Z,9.46
2022-12-24T09:11:19.052Z,9.51
2022-12-24T09:13:45.548Z,9.51
2022-12-24T09:16:12.194Z,9.58
2022-12-24T09:18:39.794Z,9.56
2022-12-24T09:21:09.085Z,9.49
2022-12-24T09:23:39.504Z,9.55
2022-12-24T09:26:12.839Z,9.62
2022-12-24T09:28:39.509Z,9.68
2022-12-24T09:31:07.429Z,9.71
2022-12-24T09:33:36.489Z,9.74
2022-12-24T09:36:04.482Z,9.79
2022-12-24T09:38:31.271Z,9.82
2022-12-24T09:41:02.434Z,9.79
2022-12-24T09:43:33.966Z,9.89
2022-12-24T09:46:16.928Z,9.93
2022-12-24T09:48:54.817Z,9.98
2022-12-24T09:51:36.446Z,10.03
2022-12-24T09:54:15.395Z,9.98
2022-12-24T09:56:45.587Z,10.03
2022-12-24T09:59:20.392Z,10.04
2022-12-24T10:01:48.984Z,10.03
2022-12-24T10:04:17.981Z,10.00
2022-12-24T10:07:03.099Z,10.01
2022-12-24T10:09:47.778Z,10.01
2022-12-24T10:12:41.126Z,10.03
2022-12-24T10:15:34.079Z,10.00
2022-12-24T10:18:26.851Z,10.04
2022-12-24T10:21:09.787Z,10.05
2022-12-24T10:24:19.231Z,10.04
2022-12-24T10:26:52.763Z,9.99
2022-12-24T10:29:31.961Z,10.00
2022-12-24T10:32:16.461Z,10.04
2022-12-24T10:34:53.435Z,10.06
2022-12-24T10:37:24.694Z,10.16
2022-12-24T10:39:52.343Z,10.20
2022-12-24T10:42:20.237Z,10.24
2022-12-24T10:44:51.863Z,10.28
2022-12-24T10:47:21.897Z,10.29
2022-12-24T10:50:03.009Z,10.33
2022-12-24T10:52:35.401Z,10.37
2022-12-24T10:55:18.532Z,10.41
2022-12-24T10:58:12.491Z,10.35
2022-12-24T11:00:40.814Z,10.36
2022-12-24T11:03:13.055Z,10.37
2022-12-24T11:05:40.201Z,10.64
2022-12-24T11:08:18.181Z,10.86
2022-12-24T11:10:55.766Z,11.26
2022-12-24T11:13:45.161Z,11.62
2022-12-24T11:16:25.696Z,11.71
2022-12-24T11:18:55.148Z,11.72
2022-12-24T11:21:30.926Z,11.70
2022-12-24T11:24:14.109Z,11.77
2022-12-24T11:26:42.984Z,11.68
2022-12-24T11:29:21.025Z,11.58
2022-12-24T11:31:48.049Z,11.47
2022-12-24T11:34:32.785Z,11.31
2022-12-24T11:37:22.113Z,11.23
2022-12-24T11:40:01.087Z,11.12
2022-12-24T11:42:33.481Z,11.09
2022-12-24T11:45:03.141Z,11.08
2022-12-24T11:47:37.744Z,11.14
2022-12-24T11:50:31.724Z,11.15
2022-12-24T11:53:04.060Z,11.21
2022-12-24T11:55:40.732Z,11.17
2022-12-24T11:58:37.456Z,11.20
2022-12-24T12:01:39.871Z,11.29
2022-12-24T12:04:17.551Z,11.59
2022-12-24T12:06:48.841Z,11.83
2022-12-24T12:09:19.994Z,11.88
2022-12-24T12:11:51.987Z,11.85
2022-12-24T12:14:27.890Z,11.77
2022-12-24T12:17:03.317Z,11.71
2022-12-24T12:19:53.691Z,11.58
2022-12-24T12:22:43.857Z,11.55
2022-12-24T12:25:22.732Z,11.43
2022-12-24T12:27:52.806Z,11.45
2022-12-24T12:30:22.406Z,11.45
2022-12-24T12:33:00.402Z,11.42
2022-12-24T12:35:35.260Z,11.34
2022-12-24T12:38:05.446Z,11.26
2022-12-24T12:40:58.318Z,11.14
2022-12-24T12:43:33.383Z,11.12
2022-12-24T12:46:36.770Z,11.10
2022-12-24T12:49:12.616Z,11.07
2022-12-24T12:51:53.291Z,11.03
2022-12-24T12:54:32.410Z,11.05
2022-12-24T12:57:05.812Z,11.06
2022-12-24T12:59:43.344Z,11.00
2022-12-24T13:02:25.123Z,11.02
2022-12-24T13:05:15.189Z,11.03
2022-12-24T13:08:04.584Z,10.98
2022-12-24T13:10:55.719Z,11.00
2022-12-24T13:14:04.050Z,10.85
2022-12-24T13:17:04.408Z,10.86
2022-12-24T13:20:14.942Z,10.77
2022-12-24T13:22:49.130Z,10.82
2022-12-24T13:25:22.541Z,10.83
2022-12-24T13:27:48.947Z,10.79
2022-12-24T13:30:36.069Z,10.76
2022-12-24T13:33:03.725Z,10.79
2022-12-24T13:35:37.615Z,10.78
2022-12-24T13:38:26.492Z,10.76
2022-12-24T13:40:53.023Z,10.73
2022-12-24T13:43:19.429Z,10.77
2022-12-24T13:45:51.171Z,10.69
2022-12-24T13:48:33.746Z,10.78
2022-12-24T13:51:20.331Z,10.84
2022-12-24T13:53:48.565Z,10.84
2022-12-24T13:56:16.591Z,10.81
2022-12-24T13:58:48.394Z,10.89
2022-12-24T14:01:18.476Z,10.85
2022-12-24T14:03:46.685Z,10.88
2022-12-24T14:06:20.990Z,10.92
2022-12-24T14:08:49.701Z,10.88
2022-12-24T14:11:27.631Z,10.87
2022-12-24T14:14:11.171Z,10.87
2022-12-24T14:16:45.572Z,10.82
2022-12-24T14:19:20.861Z,10.82
2022-12-24T14:21:56.369Z,10.83
2022-12-24T14:24:27.717Z,10.79
2022-12-24T14:26:58.781Z,10.78
2022-12-24T14:29:40.177Z,10.81
2022-12-24T14:32:13.493Z,10.76
2022-12-24T14:34:39.875Z,10.79
2022-12-24T14:37:06.382Z,10.81
2022-12-24T14:39:35.627Z,10.80
2022-12-24T14:42:26.524Z,10.76
2022-12-24T14:45:22.904Z,10.75
2022-12-24T14:48:03.897Z,10.75
2022-12-24T14:50:59.270Z,10.70
2022-12-24T14:54:04.489Z,10.70
2022-12-24T14:56:30.791Z,10.65
2022-12-24T14:58:58.962Z,10.60
2022-12-24T15:01:27.627Z,10.64
2022-12-24T15:04:04.089Z,10.59
2022-12-24T15:06:34.871Z,10.57
2022-12-24T15:09:01.469Z,10.55
2022-12-24T15:11:28.332Z,10.54
2022-12-24T15:14:00.431Z,10.56
2022-12-24T15:16:30.385Z,10.52
2022-12-24T15:19:02.112Z,10.52
2022-12-24T15:21:42.414Z,10.43
2022-12-24T15:24:36.931Z,10.37
2022-12-24T15:27:14.701Z,10.37
2022-12-24T15:29:44.784Z,10.29
2022-12-24T15:32:16.280Z,10.33
2022-12-24T15:34:45.125Z,10.25
2022-12-24T15:37:16.822Z,10.21
2022-12-24T15:39:44.513Z,10.26
2022-12-24T15:42:18.576Z,10.15
2022-12-24T15:44:57.477Z,10.14
2022-12-24T15:47:29.108Z,10.18
2022-12-24T15:49:56.101Z,10.15
2022-12-24T15:52:24.828Z,10.13
2022-12-24T15:54:57.377Z,10.10
2022-12-24T15:57:27.128Z,10.12
2022-12-24T15:59:56.053Z,10.13
2022-12-24T16:02:33.474Z,9.97
2022-12-24T16:05:27.113Z,10.15
2022-12-24T16:08:23.600Z,10.11
2022-12-24T16:11:05.949Z,9.98
2022-12-24T16:13:40.381Z,9.90
2022-12-24T16:16:10.178Z,9.97
2022-12-24T16:18:40.104Z,9.96
2022-12-24T16:21:07.608Z,9.99
2022-12-24T16:23:47.305Z,10.00
2022-12-24T16:26:14.016Z,10.10
2022-12-24T16:28:40.324Z,9.91
2022-12-24T16:31:06.793Z,9.99
2022-12-24T16:33:33.165Z,9.82
2022-12-24T16:35:59.571Z,9.82
2022-12-24T16:38:26.039Z,9.77
2022-12-24T16:40:52.607Z,9.75
2022-12-24T16:43:37.537Z,9.76
2022-12-24T16:46:06.970Z,9.85
2022-12-24T16:48:37.625Z,9.74
2022-12-24T16:51:04.054Z,9.70
2022-12-24T16:53:30.383Z,9.75
2022-12-24T16:55:56.737Z,9.63
2022-12-24T16:58:23.105Z,9.63
2022-12-24T17:00:49.547Z,9.70
2022-12-24T17:03:16.224Z,9.58
2022-12-24T17:05:44.489Z,9.62
2022-12-24T17:08:11.870Z,9.59
2022-12-24T17:10:38.607Z,9.70
2022-12-24T17:13:05.346Z,9.69
2022-12-24T17:15:32.399Z,9.70
2022-12-24T17:17:58.814Z,9.72
2022-12-24T17:20:25.304Z,9.64
2022-12-24T17:22:51.931Z,9.54
2022-12-24T17:25:18.323Z,9.46
2022-12-24T17:27:44.631Z,9.37
2022-12-24T17:30:11.388Z,9.33
2022-12-24T17:32:39.151Z,9.26
2022-12-24T17:35:05.974Z,9.13
2022-12-24T17:37:32.315Z,8.86
2022-12-24T17:39:58.826Z,8.94
2022-12-24T17:42:25.248Z,9.03
2022-12-24T17:44:51.589Z,9.02
2022-12-24T17:47:17.940Z,9.11
2022-12-24T17:49:44.261Z,9.15
2022-12-24T17:52:11.301Z,9.22
2022-12-24T17:54:37.618Z,9.20
2022-12-24T17:57:03.988Z,9.31
2022-12-24T17:59:30.322Z,9.35
2022-12-24T18:01:56.754Z,9.36
2022-12-24T18:04:23.175Z,9.39
2022-12-24T18:06:50.010Z,9.41
2022-12-24T18:09:16.791Z,9.39
2022-12-24T18:11:43.483Z,9.39
2022-12-24T18:14:13.209Z,9.42
2022-12-24T18:16:40.681Z,9.42
2022-12-24T18:19:10.126Z,9.42
2022-12-24T18:21:36.702Z,9.39
2022-12-24T18:24:03.404Z,9.42
2022-12-24T18:26:30.786Z,9.47
2022-12-24T18:29:00.070Z,9.39
2022-12-24T18:31:28.652Z,9.43
2022-12-24T18:33:55.766Z,9.42
2022-12-24T18:36:22.937Z,9.48
2022-12-24T18:38:49.506Z,9.45
2022-12-24T18:41:18.845Z,9.51
2022-12-24T18:43:45.354Z,9.46
2022-12-24T18:46:14.619Z,9.41
2022-12-24T18:48:41.662Z,9.47
2022-12-24T18:51:09.143Z,9.47
2022-12-24T18:53:36.623Z,9.43
2022-12-24T18:56:05.521Z,9.47
2022-12-24T18:58:31.896Z,9.51
2022-12-24T19:00:58.328Z,9.55
2022-12-24T19:03:24.792Z,9.54
2022-12-24T19:05:51.218Z,9.50
2022-12-24T19:08:46.916Z,9.52
2022-12-24T19:11:04.771Z,9.51
2022-12-24T19:13:31.656Z,9.54
2022-12-24T19:15:58.012Z,9.55
2022-12-24T19:18:24.582Z,9.58
2022-12-24T19:20:50.892Z,9.47
2022-12-24T19:23:17.280Z,9.47
2022-12-24T19:25:43.814Z,9.53
2022-12-24T19:28:10.159Z,9.52
2022-12-24T19:30:42.025Z,9.55
2022-12-24T19:33:09.347Z,9.53
2022-12-24T19:35:35.711Z,9.51
2022-12-24T19:38:02.037Z,9.56
2022-12-24T19:40:28.601Z,9.53
2022-12-24T19:42:54.977Z,9.53
2022-12-24T19:45:22.901Z,9.54
2022-12-24T19:47:51.259Z,9.48
2022-12-24T19:50:18.145Z,9.51
2022-12-24T19:52:45.099Z,9.46
2022-12-24T19:55:11.838Z,9.43
2022-12-24T19:57:39.553Z,9.50
2022-12-24T20:00:07.838Z,9.48
2022-12-24T20:02:38.675Z,9.49
2022-12-24T20:05:06.192Z,9.42
2022-12-24T20:07:32.629Z,9.36
2022-12-24T20:09:58.980Z,9.37
2022-12-24T20:12:25.378Z,9.33
2022-12-24T20:14:55.020Z,9.26
2022-12-24T20:17:21.402Z,9.25
2022-12-24T20:19:47.699Z,9.27
2022-12-24T20:22:14.014Z,9.24
2022-12-24T20:24:40.428Z,9.32
2022-12-24T20:27:06.826Z,9.28
2022-12-24T20:29:33.126Z,9.25
2022-12-24T20:32:00.205Z,9.24
2022-12-24T20:34:26.589Z,9.27
2022-12-24T20:36:53.091Z,9.23
2022-12-24T20:39:19.387Z,9.24
2022-12-24T20:41:45.777Z,9.26
2022-12-24T20:44:12.208Z,9.30
2022-12-24T20:46:38.589Z,9.23
2022-12-24T20:49:05.111Z,9.20
2022-12-24T20:51:31.497Z,9.16
2022-12-24T20:53:59.685Z,9.24
2022-12-24T20:56:28.630Z,9.25
2022-12-24T20:58:55.003Z,9.20
2022-12-24T21:01:24.894Z,9.13
2022-12-24T21:03:53.183Z,9.15
2022-12-24T21:06:19.691Z,9.09
2022-12-24T21:08:49.261Z,9.08
2022-12-24T21:11:34.201Z,9.09
2022-12-24T21:14:01.949Z,9.20
2022-12-24T21:16:29.961Z,9.28
2022-12-24T21:18:56.339Z,9.25
2022-12-24T21:21:22.787Z,9.20
2022-12-24T21:23:49.534Z,9.17
2022-12-24T21:26:15.931Z,9.12
2022-12-24T21:28:43.730Z,9.17
2022-12-24T21:31:11.594Z,9.33
2022-12-24T21:33:38.715Z,9.37
2022-12-24T21:36:06.105Z,9.26
2022-12-24T21:38:34.376Z,9.35
2022-12-24T21:41:15.879Z,9.20
2022-12-24T21:43:43.172Z,9.29
2022-12-24T21:46:13.970Z,9.27
2022-12-24T21:48:59.183Z,9.23
2022-12-24T21:51:27.220Z,9.15
2022-12-24T21:54:13.488Z,9.23
2022-12-24T21:56:58.728Z,9.28
2022-12-24T21:59:27.025Z,9.24
2022-12-24T22:01:54.078Z,9.29
2022-12-24T22:04:20.460Z,9.22
2022-12-24T22:07:05.484Z,9.27
2022-12-24T22:09:50.277Z,9.13
2022-12-24T22:12:16.693Z,9.14
2022-12-24T22:14:43.047Z,9.16
2022-12-24T22:17:09.452Z,9.23
2022-12-24T22:19:35.862Z,9.20
2022-12-24T22:22:02.193Z,9.05
2022-12-24T22:24:28.507Z,9.04
2022-12-24T22:26:54.846Z,9.16
2022-12-24T22:29:21.153Z,8.95
2022-12-24T22:31:47.539Z,9.06
2022-12-24T22:34:14.470Z,9.04
2022-12-24T22:36:40.931Z,9.02
2022-12-24T22:39:08.585Z,8.87
2022-12-24T22:41:35.003Z,9.02
2022-12-24T22:44:01.338Z,9.05
2022-12-24T22:46:27.703Z,9.01
2022-12-24T22:48:54.130Z,8.98
2022-12-24T22:51:24.228Z,8.91
2022-12-24T22:53:50.589Z,8.94
2022-12-24T22:56:22.363Z,9.03
2022-12-24T22:58:55.956Z,8.94
2022-12-24T23:01:44.811Z,9.03
2022-12-24T23:04:12.450Z,8.95
2022-12-24T23:06:39.667Z,8.83
2022-12-24T23:09:08.207Z,9.04
2022-12-24T23:11:35.417Z,8.83
2022-12-24T23:14:20.642Z,8.93
2022-12-24T23:16:47.125Z,8.92
2022-12-24T23:19:13.469Z,8.86
2022-12-24T23:21:39.846Z,8.93
2022-12-24T23:24:06.511Z,8.76
2022-12-24T23:26:33.039Z,8.78
2022-12-24T23:28:59.456Z,8.91
2022-12-24T23:31:26.155Z,8.83
2022-12-24T23:33:52.840Z,8.70
2022-12-24T23:36:19.638Z,8.82
2022-12-24T23:38:45.987Z,8.78
2022-12-24T23:41:12.588Z,8.79
2022-12-24T23:43:38.951Z,8.83
2022-12-24T23:46:05.841Z,8.71
2022-12-24T23:48:32.238Z,8.70
2022-12-24T23:51:11.699Z,8.84
2022-12-24T23:53:38.059Z,8.65
2022-12-24T23:56:05.303Z,8.73
2022-12-24T23:58:31.679Z,8.70
